createdAt,value
2022-10-03T00:00:15.570Z,7.55
2022-10-03T00:04:26.774Z,6.45
2022-10-03T00:08:37.364Z,8.40
2022-10-03T00:12:42.778Z,6.10
2022-10-03T00:16:50.418Z,7.85
2022-10-03T00:21:07.298Z,9.98
2022-10-03T00:25:39.362Z,8.17
2022-10-03T00:30:12.218Z,8.05
2022-10-03T00:34:43.268Z,8.77
2022-10-03T00:38:59.199Z,8.88
2022-10-03T00:43:20.468Z,11.00
2022-10-03T00:47:43.205Z,13.90
2022-10-03T00:52:10.477Z,11.07
2022-10-03T00:56:46.371Z,12.88
2022-10-03T01:00:52.188Z,9.88
2022-10-03T01:05:18.082Z,13.00
2022-10-03T01:09:27.647Z,12.63
2022-10-03T01:14:01.459Z,15.38
2022-10-03T01:18:30.339Z,14.95
2022-10-03T01:23:09.237Z,18.52
2022-10-03T01:27:59.370Z,12.48
2022-10-03T01:32:19.032Z,17.20
2022-10-03T01:36:26.326Z,16.27
2022-10-03T01:40:41.490Z,14.35
2022-10-03T01:45:26.267Z,11.07
2022-10-03T01:49:27.687Z,12.77
2022-10-03T01:53:41.074Z,13.65
2022-10-03T01:57:49.377Z,10.93
2022-10-03T02:01:57.651Z,10.60
2022-10-03T02:06:17.833Z,10.02
2022-10-03T02:10:19.568Z,10.63
2022-10-03T02:14:25.936Z,13.50
2022-10-03T02:18:40.151Z,19.02
2022-10-03T02:22:45.969Z,12.63
2022-10-03T02:27:08.414Z,18.25
2022-10-03T02:31:32.388Z,20.30
2022-10-03T02:35:52.239Z,16.40
2022-10-03T02:40:12.495Z,18.90
2022-10-03T02:44:32.203Z,19.88
2022-10-03T02:49:10.322Z,19.48
2022-10-03T02:53:36.970Z,17.98
2022-10-03T02:58:00.833Z,16.50
2022-10-03T03:02:27.993Z,17.17
2022-10-03T03:07:07.938Z,17.05
2022-10-03T03:11:29.071Z,15.25
2022-10-03T03:16:26.854Z,15.32
2022-10-03T03:21:02.003Z,13.30
2022-10-03T03:25:38.354Z,11.25
2022-10-03T03:29:45.621Z,11.85
2022-10-03T03:34:07.620Z,10.20
2022-10-03T03:38:21.447Z,10.98
2022-10-03T03:42:35.015Z,8.60
2022-10-03T03:46:44.025Z,9.90
2022-10-03T03:50:57.224Z,10.77
2022-10-03T03:55:06.812Z,10.82
2022-10-03T03:59:30.951Z,10.45
2022-10-03T04:03:49.395Z,7.60
2022-10-03T04:07:59.794Z,9.27
2022-10-03T04:12:46.088Z,9.63
2022-10-03T04:17:34.877Z,11.90
2022-10-03T04:21:51.212Z,11.98
2022-10-03T04:26:11.095Z,8.88
2022-10-03T04:30:33.083Z,12.40
2022-10-03T04:34:50.800Z,15.57
2022-10-03T04:43:38.215Z,12.90
2022-10-03T04:47:51.106Z,14.07
2022-10-03T04:51:58.940Z,16.45
2022-10-03T05:00:41.932Z,16.15
2022-10-03T05:05:09.245Z,14.00
2022-10-03T05:09:19.844Z,12.82
2022-10-03T05:13:49.431Z,14.88
2022-10-03T05:18:21.332Z,12.63
2022-10-03T05:22:40.475Z,15.50
2022-10-03T05:26:59.769Z,15.18
2022-10-03T05:31:13.332Z,15.70
2022-10-03T05:35:36.308Z,16.20
2022-10-03T05:40:16.477Z,16.52
2022-10-03T05:44:19.727Z,17.38
2022-10-03T05:48:48.208Z,20.27
2022-10-03T05:53:18.998Z,22.48
2022-10-03T05:57:48.308Z,19.60
2022-10-03T06:02:18.834Z,25.52
2022-10-03T06:06:25.775Z,43.20
2022-10-03T06:10:44.593Z,45.20
2022-10-03T06:15:03.024Z,67.47
2022-10-03T06:19:16.098Z,46.47
2022-10-03T06:23:32.616Z,52.03
2022-10-03T06:28:13.589Z,48.28
2022-10-03T06:32:39.988Z,46.95
2022-10-03T06:36:50.455Z,54.75
2022-10-03T06:41:08.827Z,43.42
2022-10-03T06:45:35.384Z,48.55
2022-10-03T06:49:49.274Z,41.28
2022-10-03T06:54:16.453Z,39.20
2022-10-03T06:58:36.503Z,36.70
2022-10-03T07:02:53.509Z,36.30
2022-10-03T07:07:16.564Z,38.83
2022-10-03T07:11:30.194Z,34.22
2022-10-03T07:20:19.875Z,21.83
2022-10-03T07:24:56.765Z,26.35
2022-10-03T07:29:14.804Z,23.23
2022-10-03T07:33:38.666Z,26.25
2022-10-03T07:38:44.629Z,24.10
2022-10-03T07:43:23.464Z,25.00
2022-10-03T07:47:52.948Z,26.10
2022-10-03T07:52:33.007Z,24.02
2022-10-03T07:56:55.950Z,24.88
2022-10-03T08:01:32.973Z,26.40
2022-10-03T08:05:54.810Z,29.83
2022-10-03T08:10:20.182Z,24.45
2022-10-03T08:15:07.100Z,21.52
2022-10-03T08:19:27.986Z,24.15
2022-10-03T08:23:35.724Z,20.38
2022-10-03T08:27:51.863Z,22.73
2022-10-03T08:32:22.302Z,16.52
2022-10-03T08:37:01.242Z,21.50
2022-10-03T08:41:41.289Z,18.15
2022-10-03T08:46:15.477Z,19.10
2022-10-03T08:50:22.313Z,18.52
2022-10-03T08:54:34.306Z,20.88
2022-10-03T08:59:13.171Z,19.65
2022-10-03T09:03:40.675Z,19.80
2022-10-03T09:08:15.499Z,18.20
2022-10-03T09:12:35.907Z,23.52
2022-10-03T09:16:55.161Z,21.63
2022-10-03T09:21:21.434Z,26.48
2022-10-03T09:25:29.689Z,20.35
2022-10-03T09:29:35.218Z,19.95
2022-10-03T09:34:01.721Z,16.48
2022-10-03T09:38:21.712Z,20.27
2022-10-03T09:42:45.962Z,16.65
2022-10-03T09:47:24.276Z,20.00
2022-10-03T09:51:31.680Z,15.32
2022-10-03T09:55:39.431Z,16.65
2022-10-03T10:00:11.432Z,15.40
2022-10-03T10:04:32.373Z,14.32
2022-10-03T10:13:49.721Z,14.88
2022-10-03T10:18:08.643Z,16.13
2022-10-03T10:22:29.296Z,17.37
2022-10-03T10:27:12.748Z,13.65
2022-10-03T10:31:45.116Z,14.65
2022-10-03T10:36:10.754Z,11.63
2022-10-03T10:40:37.259Z,13.85
2022-10-03T10:45:06.609Z,14.75
2022-10-03T10:49:30.162Z,15.18
2022-10-03T10:53:59.481Z,12.55
2022-10-03T10:58:38.596Z,13.57
2022-10-03T11:03:16.268Z,15.77
2022-10-03T11:07:37.294Z,10.25
2022-10-03T11:12:21.605Z,19.33
2022-10-03T11:17:00.796Z,13.80
2022-10-03T11:21:33.190Z,15.02
2022-10-03T11:26:12.324Z,14.30
2022-10-03T11:30:37.169Z,17.05
2022-10-03T11:34:49.905Z,13.52
2022-10-03T11:39:08.560Z,12.82
2022-10-03T11:43:41.047Z,12.43
2022-10-03T11:47:46.680Z,9.05
2022-10-03T11:51:57.852Z,13.63
2022-10-03T11:56:20.974Z,11.85
2022-10-03T12:00:23.458Z,15.30
2022-10-03T12:04:51.619Z,11.18
2022-10-03T12:09:11.963Z,9.55
2022-10-03T12:13:56.138Z,9.98
2022-10-03T12:17:58.027Z,8.43
2022-10-03T12:22:32.962Z,7.78
2022-10-03T12:26:49.379Z,6.75
2022-10-03T12:31:01.919Z,8.85
2022-10-03T12:35:15.207Z,9.88
2022-10-03T12:39:39.426Z,7.72
2022-10-03T12:43:53.744Z,9.63
2022-10-03T12:48:22.443Z,6.22
2022-10-03T12:53:01.581Z,7.38
2022-10-03T12:57:30.742Z,7.80
2022-10-03T13:02:13.459Z,14.38
2022-10-03T13:06:50.917Z,9.70
2022-10-03T13:10:56.625Z,4.97
2022-10-03T13:15:19.055Z,9.68
2022-10-03T13:19:24.254Z,7.13
2022-10-03T13:23:46.431Z,8.52
2022-10-03T13:27:51.955Z,10.13
2022-10-03T13:32:21.925Z,8.15
2022-10-03T13:36:25.171Z,15.38
2022-10-03T13:40:29.962Z,10.75
2022-10-03T13:44:40.672Z,9.32
2022-10-03T13:48:45.693Z,10.48
2022-10-03T13:53:03.619Z,7.00
2022-10-03T13:57:16.221Z,7.50
2022-10-03T14:01:36.195Z,6.53
2022-10-03T14:06:02.353Z,10.93
2022-10-03T14:10:18.409Z,6.05
2022-10-03T14:14:42.124Z,9.13
2022-10-03T14:19:27.386Z,10.98
2022-10-03T14:23:32.674Z,10.18
2022-10-03T14:27:49.147Z,9.40
2022-10-03T14:32:45.482Z,8.57
2022-10-03T14:36:53.993Z,7.72
2022-10-03T14:41:04.421Z,9.27
2022-10-03T14:45:14.984Z,6.70
2022-10-03T14:54:02.405Z,8.95
2022-10-03T14:58:10.794Z,7.65
2022-10-03T15:02:39.164Z,5.63
2022-10-03T15:06:54.357Z,11.70
2022-10-03T15:10:56.333Z,10.88
2022-10-03T15:15:03.825Z,10.13
2022-10-03T15:19:10.351Z,7.63
2022-10-03T15:23:25.451Z,8.75
2022-10-03T15:27:27.611Z,7.63
2022-10-03T15:31:37.320Z,6.63
2022-10-03T15:35:41.623Z,7.47
2022-10-03T15:39:45.686Z,8.65
2022-10-03T15:43:50.843Z,11.13
2022-10-03T15:47:52.932Z,8.20
2022-10-03T15:51:55.397Z,9.65
2022-10-03T15:56:11.446Z,8.20
2022-10-03T16:00:34.258Z,12.10
2022-10-03T16:04:40.800Z,15.57
2022-10-03T16:08:57.362Z,9.75
2022-10-03T16:13:26.467Z,8.48
2022-10-03T16:17:39.719Z,6.65
2022-10-03T16:21:46.829Z,11.43
2022-10-03T16:25:52.954Z,9.40
2022-10-03T16:30:17.019Z,8.60
2022-10-03T16:34:20.534Z,8.07
2022-10-03T16:38:44.567Z,8.45
2022-10-03T16:42:47.724Z,13.30
2022-10-03T16:46:49.707Z,7.28
2022-10-03T16:50:52.965Z,8.93
2022-10-03T16:55:00.417Z,12.80
2022-10-03T16:59:21.338Z,8.43
2022-10-03T17:03:26.346Z,7.93
2022-10-03T17:07:30.951Z,8.55
2022-10-03T17:11:35.278Z,6.47
2022-10-03T17:15:46.193Z,10.63
2022-10-03T17:19:58.462Z,9.05
2022-10-03T17:24:17.128Z,7.65
2022-10-03T17:28:46.704Z,8.52
2022-10-03T17:32:55.326Z,9.00
2022-10-03T17:37:08.182Z,9.63
2022-10-03T17:41:21.520Z,10.93
2022-10-03T17:46:01.942Z,8.75
2022-10-03T17:50:14.884Z,10.18
2022-10-03T17:54:33.293Z,10.95
2022-10-03T17:58:37.789Z,10.00
2022-10-03T18:02:58.031Z,11.45
2022-10-03T18:07:06.882Z,11.18
2022-10-03T18:11:10.306Z,14.38
2022-10-03T18:15:35.441Z,20.90
2022-10-03T18:19:46.179Z,11.80
2022-10-03T18:24:22.616Z,10.32
2022-10-03T18:29:00.430Z,13.55
2022-10-03T18:33:03.325Z,11.50
2022-10-03T18:37:39.869Z,9.90
2022-10-03T18:42:08.600Z,9.63
2022-10-03T18:46:19.888Z,11.75
2022-10-03T18:50:35.725Z,12.13
2022-10-03T18:54:46.463Z,10.48
2022-10-03T18:59:14.359Z,13.07
2022-10-03T19:03:18.712Z,17.10
2022-10-03T19:07:23.910Z,11.68
2022-10-03T19:11:29.638Z,13.95
2022-10-03T19:16:00.830Z,14.20
2022-10-03T19:20:20.934Z,10.38
2022-10-03T19:24:56.639Z,12.95
2022-10-03T19:28:56.621Z,10.80
2022-10-03T19:33:07.601Z,11.00
2022-10-03T19:37:39.821Z,11.75
2022-10-03T19:41:47.368Z,8.63
2022-10-03T19:45:51.574Z,12.70
2022-10-03T19:50:20.448Z,14.55
2022-10-03T19:54:31.853Z,11.20
2022-10-03T19:58:34.840Z,16.90
2022-10-03T20:02:36.619Z,10.43
2022-10-03T20:06:41.916Z,12.20
2022-10-03T20:10:48.236Z,10.63
2022-10-03T20:14:53.301Z,9.48
2022-10-03T20:19:06.511Z,9.27
2022-10-03T20:23:13.571Z,10.57
2022-10-03T20:27:33.642Z,12.20
2022-10-03T20:31:37.224Z,10.18
2022-10-03T20:35:42.115Z,17.40
2022-10-03T20:39:45.446Z,10.10
2022-10-03T20:44:06.890Z,16.50
2022-10-03T20:48:17.079Z,13.77
2022-10-03T20:52:21.049Z,10.20
2022-10-03T20:56:28.582Z,8.93
2022-10-03T21:00:31.128Z,8.50
2022-10-03T21:04:40.725Z,11.45
2022-10-03T21:08:42.411Z,12.55
2022-10-03T21:12:47.838Z,8.90
2022-10-03T21:16:51.479Z,11.98
2022-10-03T21:21:04.760Z,13.00
2022-10-03T21:25:17.396Z,9.75
2022-10-03T21:29:31.787Z,10.88
2022-10-03T21:34:05.093Z,11.70
2022-10-03T21:38:16.129Z,12.13
2022-10-03T21:43:06.033Z,13.68
2022-10-03T21:47:16.864Z,18.98
2022-10-03T21:51:39.656Z,14.57
2022-10-03T21:55:53.656Z,15.02
2022-10-03T22:00:17.449Z,11.52
2022-10-03T22:04:40.733Z,14.55
2022-10-03T22:08:44.646Z,13.30
2022-10-03T22:12:49.879Z,10.55
2022-10-03T22:17:09.801Z,12.00
2022-10-03T22:21:19.550Z,9.32
2022-10-03T22:25:42.358Z,13.52
2022-10-03T22:30:05.150Z,10.48
2022-10-03T22:34:18.267Z,11.18
2022-10-03T22:38:33.105Z,11.73
2022-10-03T22:42:40.770Z,13.32
2022-10-03T22:46:45.102Z,13.32
2022-10-03T22:50:46.792Z,12.93
2022-10-03T22:54:49.276Z,9.88
2022-10-03T22:58:52.145Z,9.88
2022-10-03T23:02:59.705Z,15.00
2022-10-03T23:07:43.141Z,9.23
2022-10-03T23:11:46.051Z,8.90
2022-10-03T23:15:51.131Z,17.17
2022-10-03T23:20:24.676Z,8.65
2022-10-03T23:24:39.291Z,8.80
2022-10-03T23:29:01.019Z,14.40
2022-10-03T23:33:02.826Z,7.85
2022-10-03T23:37:23.215Z,14.32
2022-10-03T23:41:30.931Z,10.93
2022-10-03T23:45:34.328Z,8.93
2022-10-03T23:49:37.169Z,8.60
2022-10-03T23:53:51.732Z,11.15
2022-10-03T23:57:54.019Z,7.80
